Time;durP1;ratioP1;P1;durP2;ratioP2;P2;SDS_P1;SDS_P2;PMS_P1;PMS_P2;Temp;Humidity;BMP_temperature;BMP_pressure;BME280_temperature;BME280_humidity;BME280_pressure;Samples;Min_cycle;Max_cycle;Signal;HPM_P1;HPM_P2
2021/07/27 00:02:23;;;;;;;14.33;11.12;;;;;;;23.19;58.53;99777.45;1756394;81;21129;-40
2021/07/27 00:04:49;;;;;;;18.80;11.83;;;;;;;23.19;58.64;99774.69;1756507;81;20946;-40
2021/07/27 00:07:16;;;;;;;18.67;11.78;;;;;;;23.18;58.68;99773.91;1756426;81;20998;-40
2021/07/27 00:09:43;;;;;;;15.05;11.08;;;;;;;23.17;58.67;99772.34;1756395;81;21029;-40
2021/07/27 00:12:10;;;;;;;14.80;11.88;;;;;;;23.15;58.75;99765.67;1756590;81;21032;-40
2021/07/27 00:14:37;;;;;;;20.10;12.13;;;;;;;23.11;58.81;99767.16;1756576;81;21852;-40
2021/07/27 00:17:05;;;;;;;15.90;12.35;;;;;;;23.10;58.71;99766.20;1756265;81;20969;-40
2021/07/27 00:19:32;;;;;;;17.23;10.98;;;;;;;23.05;58.66;99770.27;1756470;81;21006;-40
2021/07/27 00:21:58;;;;;;;16.35;12.25;;;;;;;23.00;58.84;99770.80;1756551;81;21017;-40
2021/07/27 00:24:26;;;;;;;13.98;12.13;;;;;;;22.97;59.19;99767.52;1756565;81;21088;-40
2021/07/27 00:26:54;;;;;;;16.73;11.88;;;;;;;22.92;59.45;99767.44;1756326;81;21089;-40
2021/07/27 00:29:22;;;;;;;17.80;12.37;;;;;;;22.89;59.53;99764.77;1756661;81;20965;-40
2021/07/27 00:34:20;;;;;;;17.92;11.90;;;;;;;22.89;59.78;99760.62;1774808;79;22595;-40
2021/07/27 00:36:48;;;;;;;15.10;11.60;;;;;;;22.81;59.82;99761.39;1746218;82;21532;-40
2021/07/27 00:39:15;;;;;;;14.38;11.90;;;;;;;22.80;59.64;99762.59;1746485;82;21763;-40
2021/07/27 00:41:41;;;;;;;22.48;12.80;;;;;;;22.81;59.68;99760.00;1746353;82;20971;-40
2021/07/27 00:44:08;;;;;;;15.55;12.03;;;;;;;22.81;59.38;99753.09;1746393;82;20971;-40
2021/07/27 00:46:34;;;;;;;17.52;11.90;;;;;;;22.78;59.34;99751.81;1746159;82;20939;-40
2021/07/27 00:49:01;;;;;;;19.35;12.47;;;;;;;22.76;59.35;99753.61;1746498;82;21026;-40
2021/07/27 00:51:29;;;;;;;13.45;11.45;;;;;;;22.73;59.48;99757.25;1746255;82;21134;-40
2021/07/27 00:53:56;;;;;;;14.07;12.28;;;;;;;22.69;59.43;99744.09;1746370;82;20944;-40
2021/07/27 00:56:23;;;;;;;14.87;11.93;;;;;;;22.66;59.74;99743.56;1746274;82;21548;-40
2021/07/27 00:58:49;;;;;;;19.40;12.40;;;;;;;22.63;59.74;99745.81;1746144;82;20935;-40
2021/07/27 01:01:16;;;;;;;13.13;11.18;;;;;;;22.59;59.56;99746.52;1746143;82;21536;-40
2021/07/27 01:03:43;;;;;;;17.15;11.33;;;;;;;22.61;59.44;99749.60;1746280;82;21363;-40
2021/07/27 01:06:10;;;;;;;14.70;11.73;;;;;;;22.63;59.32;99746.42;1746150;82;20998;-40
2021/07/27 01:08:38;;;;;;;14.80;11.55;;;;;;;22.65;59.42;99744.80;1746146;82;20982;-40
2021/07/27 01:11:05;;;;;;;17.40;12.15;;;;;;;22.66;59.35;99746.33;1746129;82;21568;-40
2021/07/27 01:13:32;;;;;;;15.70;12.47;;;;;;;22.68;59.23;99741.16;1716766;82;21016;-40
2021/07/27 01:16:04;;;;;;;16.97;12.23;;;;;;;22.69;59.25;99744.09;1746056;82;21127;-40
2021/07/27 01:18:29;;;;;;;18.17;12.60;;;;;;;22.68;59.21;99746.69;1745498;82;21070;-40
2021/07/27 01:37:34;;;;;;;15.85;11.30;;;;;;;22.43;60.33;99747.27;1757053;81;21004;-40
2021/07/27 01:39:54;;;;;;;14.53;11.55;;;;;;;22.45;60.36;99740.72;1755151;81;21087;-40
2021/07/27 01:42:21;;;;;;;16.05;12.40;;;;;;;22.49;60.27;99737.27;1756864;81;21137;-40
2021/07/27 01:44:48;;;;;;;15.90;12.18;;;;;;;22.51;60.07;99744.50;1756570;81;20961;-40
2021/07/27 01:47:19;;;;;;;15.25;11.97;;;;;;;22.52;59.99;99742.52;1756365;81;20953;-40
2021/07/27 01:49:47;;;;;;;20.90;11.78;;;;;;;22.52;59.91;99741.92;1756238;81;20933;-40
2021/07/27 01:52:15;;;;;;;16.05;11.90;;;;;;;22.52;59.97;99734.23;1756805;81;21048;-40
2021/07/27 01:54:51;;;;;;;12.88;11.33;;;;;;;22.52;59.95;99745.28;1756154;81;21113;-40
2021/07/27 01:57:16;;;;;;;17.98;12.00;;;;;;;22.50;60.20;99738.83;1756026;81;21606;-40
2021/07/27 02:00:03;;;;;;;17.57;12.58;;;;;;;22.49;60.49;99745.55;1778716;80;21483;-40
2021/07/27 02:02:32;;;;;;;14.40;11.97;;;;;;;22.49;60.46;99740.03;1787648;80;21005;-40
2021/07/27 02:04:58;;;;;;;16.65;11.88;;;;;;;22.46;60.40;99735.98;1787593;80;21010;-40
2021/07/27 02:07:25;;;;;;;13.62;12.15;;;;;;;22.45;60.42;99744.87;1787707;80;21083;-40
2021/07/27 02:09:58;;;;;;;14.33;11.05;;;;;;;22.42;60.43;99739.40;1787383;80;20968;-40
2021/07/27 02:12:23;;;;;;;13.32;10.40;;;;;;;22.45;60.40;99738.56;1786497;80;21008;-40
2021/07/27 02:15:06;;;;;;;16.02;11.57;;;;;;;22.49;60.50;99736.48;1787593;80;21036;-40
2021/07/27 02:17:33;;;;;;;15.28;11.60;;;;;;;22.51;60.46;99738.23;1787707;80;21012;-40
2021/07/27 02:20:00;;;;;;;17.10;12.45;;;;;;;22.51;60.52;99727.17;1787455;80;21131;-40
2021/07/27 02:22:27;;;;;;;18.65;12.10;;;;;;;22.51;60.45;99734.83;1787728;80;21539;-40
2021/07/27 02:24:54;;;;;;;15.32;12.37;;;;;;;22.53;60.50;99731.65;1787359;80;20992;-40
2021/07/27 02:27:20;;;;;;;17.57;12.47;;;;;;;22.52;60.61;99735.61;1787500;80;20992;-40
2021/07/27 02:29:47;;;;;;;14.55;11.73;;;;;;;22.50;60.62;99736.66;1787434;80;21016;-40
2021/07/27 02:32:14;;;;;;;15.78;12.03;;;;;;;22.48;60.57;99732.94;1787395;80;21139;-40
2021/07/27 02:34:40;;;;;;;17.80;12.30;;;;;;;22.48;60.51;99728.02;1775307;80;20942;-40
2021/07/27 02:37:07;;;;;;;17.95;12.73;;;;;;;22.46;60.42;99729.82;1773886;80;21008;-40
2021/07/27 02:39:34;;;;;;;17.80;12.50;;;;;;;22.44;60.47;99719.82;1774062;80;21524;-40
2021/07/27 02:42:01;;;;;;;16.25;11.38;;;;;;;22.41;60.74;99726.19;1773956;80;21847;-40
2021/07/27 02:44:27;;;;;;;14.18;10.95;;;;;;;22.43;60.88;99729.91;1774070;80;21108;-40
2021/07/27 02:46:54;;;;;;;19.05;12.00;;;;;;;22.47;60.85;99725.08;1773880;80;21516;-40
2021/07/27 02:49:21;;;;;;;14.15;11.33;;;;;;;22.50;60.60;99730.54;1773940;80;21060;-40
2021/07/27 02:51:51;;;;;;;22.42;12.37;;;;;;;22.51;60.52;99727.92;1773763;80;20930;-40
2021/07/27 02:54:18;;;;;;;;;;;;;;;22.53;60.55;99724.74;1771717;80;20968;-40
2021/07/27 02:56:44;;;;;;;32.42;14.93;;;;;;;22.55;60.70;99733.39;1764094;81;21108;-40
2021/07/27 02:59:11;;;;;;;23.35;13.55;;;;;;;22.44;60.93;99734.23;1763853;81;20902;-40
2021/07/27 03:01:38;;;;;;;20.92;13.43;;;;;;;22.46;61.04;99737.36;1763935;81;20934;-39
2021/07/27 03:04:05;;;;;;;16.57;13.18;;;;;;;22.46;61.02;99726.30;1763911;81;21343;-40
2021/07/27 03:06:31;;;;;;;16.15;12.13;;;;;;;22.44;61.03;99743.30;1763910;81;21017;-40
2021/07/27 03:11:26;;;;;;;16.35;11.83;;;;;;;22.40;61.31;99741.84;1763788;81;20957;-40
2021/07/27 03:13:54;;;;;;;17.30;11.88;;;;;;;22.40;61.25;99739.85;1757927;81;21470;-40
2021/07/27 03:16:23;;;;;;;16.42;11.40;;;;;;;22.43;61.28;99739.58;1763760;81;21369;-40
2021/07/27 03:18:51;;;;;;;16.90;12.17;;;;;;;22.43;61.43;99739.58;1764072;81;21026;-40
2021/07/27 03:21:21;;;;;;;14.73;11.88;;;;;;;22.42;61.54;99740.78;1763908;81;21793;-40
2021/07/27 03:23:49;;;;;;;15.75;12.65;;;;;;;22.42;61.50;99740.78;1764018;81;21049;-40
2021/07/27 03:26:20;;;;;;;16.67;12.33;;;;;;;22.44;61.16;99741.92;1763805;81;21603;-40
2021/07/27 03:28:46;;;;;;;15.05;12.28;;;;;;;22.45;61.01;99733.03;1763692;81;21006;-40
2021/07/27 03:31:13;;;;;;;14.50;12.13;;;;;;;22.47;60.96;99738.89;1763178;80;21026;-40
2021/07/27 03:33:40;;;;;;;20.68;12.53;;;;;;;22.47;61.01;99731.98;1698729;83;21528;-40
2021/07/27 03:36:07;;;;;;;13.55;11.43;;;;;;;22.45;61.25;99735.80;1720373;83;20969;-40
2021/07/27 03:38:38;;;;;;;15.98;10.68;;;;;;;22.49;61.23;99731.73;1720614;83;21540;-40
2021/07/27 03:41:09;;;;;;;16.35;11.80;;;;;;;22.55;61.05;99730.62;1720464;83;21013;-40
2021/07/27 03:43:37;;;;;;;18.85;11.70;;;;;;;22.63;60.98;99731.22;1715166;83;21023;-40
2021/07/27 03:46:05;;;;;;;16.32;12.10;;;;;;;22.67;60.96;99734.06;1750490;81;21159;-40
2021/07/27 03:48:31;;;;;;;15.80;12.28;;;;;;;22.73;60.80;99730.21;1720551;83;21848;-40
2021/07/27 03:51:00;;;;;;;40.45;14.50;;;;;;;22.78;60.80;99729.09;1720452;83;20945;-40
2021/07/27 03:53:27;;;;;;;24.95;14.10;;;;;;;22.83;61.21;99730.55;1720680;83;21065;-40
2021/07/27 03:55:54;;;;;;;25.45;13.28;;;;;;;22.87;61.03;99728.47;1714956;83;21059;-40
2021/07/27 03:58:21;;;;;;;17.62;12.75;;;;;;;22.89;60.69;99715.78;1726700;83;21123;-40
2021/07/27 04:00:49;;;;;;;16.50;12.58;;;;;;;22.91;60.79;99713.34;1726546;83;20910;-40
2021/07/27 04:03:17;;;;;;;15.90;11.95;;;;;;;22.93;60.90;99710.16;1726779;83;20981;-40
2021/07/27 04:05:44;;;;;;;16.02;11.18;;;;;;;22.98;61.22;99712.40;1720591;83;21496;-40
2021/07/27 04:08:12;;;;;;;15.25;11.50;;;;;;;23.06;61.41;99714.36;1693842;83;21051;-40
2021/07/27 04:10:39;;;;;;;16.52;12.33;;;;;;;23.11;61.43;99721.52;1720465;83;21118;-40
2021/07/27 04:13:07;;;;;;;18.75;12.65;;;;;;;23.15;61.48;99718.05;1720392;83;20974;-40
2021/07/27 04:15:39;;;;;;;21.00;13.85;;;;;;;23.20;61.53;99720.89;1750791;81;21483;-40
2021/07/27 04:18:06;;;;;;;15.70;12.50;;;;;;;23.25;61.84;99716.22;1731290;82;21021;-40
2021/07/27 04:20:33;;;;;;;23.15;17.75;;;;;;;23.30;61.72;99716.47;1720848;83;21040;-40
2021/07/27 04:23:01;;;;;;;23.65;17.52;;;;;;;23.34;61.76;99712.20;1720323;83;21144;-40
2021/07/27 04:25:29;;;;;;;20.10;14.63;;;;;;;23.38;61.57;99715.67;1720394;83;21057;-40
2021/07/27 04:27:56;;;;;;;23.92;15.95;;;;;;;23.45;61.42;99712.73;1720391;83;21030;-40
2021/07/27 04:30:23;;;;;;;21.45;13.90;;;;;;;23.52;61.30;99708.39;1743816;82;21005;-40
2021/07/27 04:32:50;;;;;;;17.92;11.73;;;;;;;23.62;61.09;99711.47;1709117;84;21563;-40
2021/07/27 04:35:17;;;;;;;17.40;12.05;;;;;;;23.68;60.85;99709.69;1699793;83;21784;-40
2021/07/27 04:37:44;;;;;;;17.67;12.15;;;;;;;23.74;60.38;99712.09;1698248;84;21097;-40
2021/07/27 04:40:12;;;;;;;17.23;11.83;;;;;;;23.81;60.32;99709.13;1698403;84;21795;-40
2021/07/27 04:42:38;;;;;;;16.67;12.15;;;;;;;23.86;60.30;99700.88;1698793;84;20962;-40
2021/07/27 04:45:07;;;;;;;18.20;12.23;;;;;;;23.89;60.27;99706.13;1698373;84;21046;-40
2021/07/27 04:47:33;;;;;;;17.75;11.63;;;;;;;23.95;60.27;99703.77;1698705;83;21108;-40
2021/07/27 04:50:02;;;;;;;16.12;11.88;;;;;;;23.99;60.28;99702.27;1698441;84;20990;-40
2021/07/27 04:52:30;;;;;;;16.48;11.15;;;;;;;24.04;60.22;99700.33;1698700;84;21379;-41
2021/07/27 04:54:57;;;;;;;14.45;11.10;;;;;;;24.11;60.39;99704.25;1654213;86;20987;-41
2021/07/27 04:57:24;;;;;;;15.13;11.18;;;;;;;24.19;60.45;99698.70;1654208;86;21062;-40
2021/07/27 04:59:50;;;;;;;17.67;11.73;;;;;;;24.30;59.75;99698.38;1654074;86;21181;-41
2021/07/27 05:02:17;;;;;;;14.13;11.15;;;;;;;24.37;59.37;99698.92;1681782;85;21034;-41
2021/07/27 05:04:46;;;;;;;15.63;11.10;;;;;;;24.46;59.25;99695.47;1654121;86;21006;-41
2021/07/27 05:07:13;;;;;;;21.87;11.75;;;;;;;24.51;59.14;99704.00;1654432;86;21568;-41
2021/07/27 05:09:40;;;;;;;14.25;11.05;;;;;;;24.59;58.87;99708.72;1654168;86;21551;-41
2021/07/27 05:12:08;;;;;;;14.83;11.22;;;;;;;24.66;58.88;99707.09;1654458;86;21772;-41
2021/07/27 05:14:35;;;;;;;15.43;11.68;;;;;;;24.71;58.56;99711.29;1662515;86;21041;-41
2021/07/27 05:17:10;;;;;;;14.60;11.12;;;;;;;24.76;58.31;99712.11;1693498;84;21097;-41
2021/07/27 05:19:52;;;;;;;18.15;11.80;;;;;;;24.80;57.95;99708.60;1665595;86;21001;-41
2021/07/27 05:22:24;;;;;;;15.30;10.90;;;;;;;24.86;57.33;99702.66;1726343;83;21052;-41
2021/07/27 05:24:48;;;;;;;14.58;11.53;;;;;;;24.92;57.20;99700.91;1725380;83;21148;-41
2021/07/27 05:27:15;;;;;;;16.17;11.50;;;;;;;24.97;57.15;99698.95;1726301;83;22298;-41
2021/07/27 05:29:41;;;;;;;19.42;11.20;;;;;;;25.01;56.92;99703.16;1726254;83;21487;-41
2021/07/27 05:32:08;;;;;;;14.93;11.08;;;;;;;25.05;56.73;99698.86;1726224;83;21066;-41
2021/07/27 05:34:35;;;;;;;15.25;10.68;;;;;;;25.09;57.26;99696.13;1750249;80;21040;-41
2021/07/27 05:37:02;;;;;;;14.90;11.18;;;;;;;25.14;57.23;99701.70;1782532;80;21130;-41
2021/07/27 05:39:29;;;;;;;14.53;10.98;;;;;;;25.16;56.52;99703.43;1782544;80;20929;-41
2021/07/27 05:41:56;;;;;;;18.23;11.68;;;;;;;25.19;56.76;99698.97;1782553;80;20965;-41
2021/07/27 05:44:26;;;;;;;12.70;10.85;;;;;;;25.26;57.00;99702.28;1782497;80;21068;-41
2021/07/27 05:46:53;;;;;;;14.55;10.60;;;;;;;25.32;56.60;99703.23;1782619;80;21073;-41
2021/07/27 05:49:21;;;;;;;14.75;10.45;;;;;;;25.37;56.53;99702.66;1782411;80;21206;-41
2021/07/27 05:51:49;;;;;;;14.60;10.80;;;;;;;25.44;56.48;99697.47;1782316;80;21519;-41
2021/07/27 05:54:19;;;;;;;13.72;10.70;;;;;;;25.49;56.19;99701.83;1782467;80;21003;-41
2021/07/27 05:56:48;;;;;;;12.75;10.68;;;;;;;25.59;55.83;99701.92;1782576;80;21048;-41
2021/07/27 05:59:16;;;;;;;15.65;10.28;;;;;;;25.66;55.68;99705.83;1782664;80;21037;-41
2021/07/27 06:01:43;;;;;;;24.37;10.60;;;;;;;25.73;55.50;99703.55;1782402;80;21117;-41
2021/07/27 06:04:09;;;;;;;17.92;9.80;;;;;;;25.81;55.24;99700.66;1782583;80;21001;-41
2021/07/27 06:06:36;;;;;;;14.68;10.85;;;;;;;25.88;54.71;99700.41;1782428;80;21496;-41
2021/07/27 06:09:06;;;;;;;15.30;10.10;;;;;;;25.95;55.08;99708.45;1782321;80;20964;-41
2021/07/27 06:11:34;;;;;;;17.25;10.10;;;;;;;26.04;55.00;99703.57;1782614;80;21005;-41
2021/07/27 06:14:02;;;;;;;13.70;9.78;;;;;;;26.13;54.17;99703.61;1781948;80;21060;-41
2021/07/27 06:16:28;;;;;;;14.20;10.18;;;;;;;26.21;54.10;99705.48;1782701;80;21012;-41
2021/07/27 06:18:55;;;;;;;14.58;10.15;;;;;;;26.31;53.84;99709.88;1782489;80;20988;-41
2021/07/27 06:21:22;;;;;;;13.95;9.50;;;;;;;26.38;53.90;99707.57;1782319;80;21033;-41
2021/07/27 06:23:50;;;;;;;16.32;9.98;;;;;;;26.47;53.37;99706.08;1782732;80;21076;-41
2021/07/27 06:26:16;;;;;;;13.28;9.95;;;;;;;26.57;53.05;99710.43;1782675;80;21566;-41
2021/07/27 06:28:43;;;;;;;11.63;9.68;;;;;;;26.65;53.00;99713.06;1782568;80;21259;-41
2021/07/27 06:31:12;;;;;;;14.55;9.35;;;;;;;26.74;53.12;99711.69;1782507;80;21078;-41
2021/07/27 06:33:43;;;;;;;15.58;10.08;;;;;;;26.79;51.81;99712.47;1782579;80;21028;-41
2021/07/27 06:36:10;;;;;;;13.28;8.98;;;;;;;26.83;51.75;99710.31;1782272;80;21080;-41
2021/07/27 06:38:36;;;;;;;12.85;9.20;;;;;;;26.89;51.88;99709.89;1782214;80;21083;-41
2021/07/27 06:41:07;;;;;;;13.05;9.50;;;;;;;26.97;52.15;99704.17;1782122;80;21015;-41
2021/07/27 06:43:35;;;;;;;12.88;9.70;;;;;;;27.07;52.15;99712.69;1782369;80;21027;-41
2021/07/27 06:46:02;;;;;;;15.10;10.23;;;;;;;27.14;52.40;99697.08;1782012;80;21570;-41
2021/07/27 06:48:28;;;;;;;12.60;10.08;;;;;;;27.25;51.81;99703.58;1782175;80;20988;-41
2021/07/27 06:50:55;;;;;;;14.03;10.23;;;;;;;27.34;52.41;99704.19;1782275;80;21143;-41
2021/07/27 06:53:23;;;;;;;15.90;10.48;;;;;;;27.42;52.13;99695.05;1781926;80;20956;-41
2021/07/27 06:55:50;;;;;;;21.33;10.32;;;;;;;27.55;51.95;99703.25;1782167;80;20929;-41
2021/07/27 06:58:17;;;;;;;19.20;11.05;;;;;;;27.64;51.77;99700.47;1782190;80;21072;-41
2021/07/27 07:00:44;;;;;;;16.80;10.03;;;;;;;27.72;51.64;99706.48;1781999;80;20930;-41
2021/07/27 07:03:11;;;;;;;14.45;10.08;;;;;;;27.77;51.81;99708.02;1782361;80;21155;-41
2021/07/27 07:05:38;;;;;;;10.80;9.50;;;;;;;27.86;51.58;99705.20;1782099;80;20984;-41
2021/07/27 07:08:05;;;;;;;12.60;9.23;;;;;;;27.95;50.81;99702.39;1782023;80;21835;-41
2021/07/27 07:10:32;;;;;;;17.55;9.95;;;;;;;28.04;50.39;99703.75;1782281;80;21016;-41
2021/07/27 07:12:58;;;;;;;15.75;10.20;;;;;;;28.13;50.16;99705.01;1782317;80;21006;-41
2021/07/27 07:15:25;;;;;;;14.83;9.70;;;;;;;28.17;49.44;99702.20;1782091;80;21206;-41
2021/07/27 07:17:52;;;;;;;15.60;9.95;;;;;;;28.25;48.79;99699.20;1782152;80;21483;-41
2021/07/27 07:20:20;;;;;;;13.00;9.30;;;;;;;28.30;49.35;99693.61;1782133;80;21470;-41
2021/07/27 07:22:47;;;;;;;16.95;9.55;;;;;;;28.38;49.16;99696.19;1775669;80;21052;-41
2021/07/27 07:25:13;;;;;;;18.48;9.83;;;;;;;28.50;48.67;99693.82;1782280;80;21519;-41
2021/07/27 07:27:40;;;;;;;14.07;8.93;;;;;;;28.58;47.85;99692.83;1782413;80;21121;-41
2021/07/27 07:30:09;;;;;;;15.18;8.65;;;;;;;28.67;46.62;99697.73;1782169;80;21487;-41
2021/07/27 07:32:36;;;;;;;16.95;8.60;;;;;;;28.73;47.09;99691.69;1781987;80;21456;-41
2021/07/27 07:35:05;;;;;;;35.40;10.88;;;;;;;28.83;47.22;99693.16;1779353;80;21080;-41
2021/07/27 07:37:31;;;;;;;17.77;9.50;;;;;;;28.93;46.74;99690.46;1773859;80;21036;-41
2021/07/27 07:39:58;;;;;;;13.80;8.80;;;;;;;29.03;45.79;99686.97;1773806;80;22013;-41
2021/07/27 07:42:25;;;;;;;16.52;9.20;;;;;;;29.13;45.19;99677.90;1773890;80;21504;-41
2021/07/27 07:44:52;;;;;;;12.85;8.45;;;;;;;29.16;43.85;99687.48;1773832;80;20981;-41
2021/07/27 07:47:19;;;;;;;13.05;7.33;;;;;;;29.16;44.55;99680.50;1773935;80;20973;-41
2021/07/27 07:49:45;;;;;;;13.15;8.78;;;;;;;29.20;44.50;99685.89;1773937;80;21025;-41
2021/07/27 07:52:12;;;;;;;16.77;8.60;;;;;;;29.22;43.90;99687.59;1773907;80;21684;-41
2021/07/27 07:54:40;;;;;;;11.35;7.95;;;;;;;29.26;44.42;99685.38;1773723;80;20976;-41
2021/07/27 07:57:07;;;;;;;11.88;8.55;;;;;;;29.34;44.70;99682.38;1773981;80;21693;-41
2021/07/27 07:59:34;;;;;;;12.28;8.40;;;;;;;29.41;43.10;99684.80;1773863;80;20994;-41
2021/07/27 08:02:00;;;;;;;13.48;8.10;;;;;;;29.42;42.48;99689.77;1773686;80;21001;-41
2021/07/27 08:04:27;;;;;;;12.75;8.30;;;;;;;29.45;43.02;99681.19;1773871;80;21148;-41
2021/07/27 08:06:55;;;;;;;10.00;7.40;;;;;;;29.51;42.76;99680.67;1762906;80;21490;-41
2021/07/27 08:09:22;;;;;;;13.28;7.75;;;;;;;29.58;42.47;99680.27;1745686;82;20997;-42
2021/07/27 08:11:49;;;;;;;9.38;7.42;;;;;;;29.67;43.20;99675.23;1744688;82;21013;-41
2021/07/27 08:14:16;;;;;;;15.58;7.47;;;;;;;29.77;42.06;99673.23;1745560;82;21518;-41
2021/07/27 08:16:43;;;;;;;11.97;7.15;;;;;;;29.86;41.27;99681.39;1745419;82;21064;-41
2021/07/27 08:19:10;;;;;;;16.52;7.53;;;;;;;29.93;41.87;99678.98;1745469;82;20982;-41
2021/07/27 08:21:36;;;;;;;11.80;7.00;;;;;;;30.03;40.34;99681.05;1745779;82;21005;-41
2021/07/27 08:24:04;;;;;;;12.65;7.30;;;;;;;30.12;40.80;99681.70;1745477;82;21563;-41
2021/07/27 08:26:30;;;;;;;11.38;7.40;;;;;;;30.21;40.28;99678.02;1745530;82;21531;-41
2021/07/27 08:28:57;;;;;;;9.85;7.83;;;;;;;30.28;40.06;99681.05;1745469;82;21115;-41
2021/07/27 08:31:24;;;;;;;11.33;7.20;;;;;;;30.34;39.18;99686.88;1726589;82;21016;-41
2021/07/27 08:33:51;;;;;;;12.53;6.85;;;;;;;30.36;39.58;99680.15;1715710;83;21012;-41
2021/07/27 08:36:18;;;;;;;9.15;7.05;;;;;;;30.39;38.80;99672.20;1717614;82;20981;-41
2021/07/27 08:38:45;;;;;;;10.88;7.03;;;;;;;30.44;39.61;99671.50;1718247;83;21050;-42
2021/07/27 08:41:13;;;;;;;10.90;7.03;;;;;;;30.52;40.02;99670.48;1718477;83;21133;-41
2021/07/27 08:43:41;;;;;;;;;;;;;;;30.60;40.59;99675.80;1720950;83;21042;-41
2021/07/27 08:46:07;;;;;;;11.33;7.47;;;;;;;30.70;39.58;99668.80;1718556;83;20431;-42
2021/07/27 08:48:37;;;;;;;15.15;8.25;;;;;;;30.76;40.46;99671.67;1718302;83;20973;-42
2021/07/27 08:51:04;;;;;;;12.88;7.35;;;;;;;30.90;40.66;99672.23;1718642;83;21045;-41
2021/07/27 08:53:32;;;;;;;15.15;7.30;;;;;;;31.04;39.22;99672.18;1718249;83;21216;-42
2021/07/27 08:55:59;;;;;;;13.62;7.25;;;;;;;31.13;38.58;99675.45;1718298;83;21026;-42
2021/07/27 08:58:27;;;;;;;12.03;6.72;;;;;;;31.22;39.04;99671.75;1718498;83;21070;-41
2021/07/27 09:00:53;;;;;;;9.53;6.90;;;;;;;31.33;39.03;99662.81;1718460;83;21013;-41
2021/07/27 09:03:20;;;;;;;10.55;6.85;;;;;;;31.43;38.94;99666.22;1718873;83;21087;-41
2021/07/27 09:05:49;;;;;;;12.28;6.78;;;;;;;31.54;38.54;99662.75;1718996;82;21073;-42
2021/07/27 09:08:15;;;;;;;14.43;7.28;;;;;;;31.62;37.18;99658.27;1718592;83;20969;-41
2021/07/27 09:10:43;;;;;;;9.93;6.28;;;;;;;31.67;35.72;99661.11;1718489;83;20985;-42
2021/07/27 09:13:12;;;;;;;9.88;6.20;;;;;;;31.61;36.08;99653.31;1718943;83;21057;-42
2021/07/27 09:15:43;;;;;;;17.30;7.62;;;;;;;31.53;37.16;99640.19;1718439;83;20921;-41
2021/07/27 09:18:14;;;;;;;13.98;6.70;;;;;;;31.51;37.77;99643.51;1718883;83;21016;-41
2021/07/27 09:20:49;;;;;;;11.45;6.80;;;;;;;31.59;37.47;99646.02;1718562;83;20957;-41
2021/07/27 09:23:25;;;;;;;10.93;6.75;;;;;;;31.67;36.99;99644.92;1718974;83;21005;-41
2021/07/27 09:25:57;;;;;;;15.83;7.22;;;;;;;31.76;37.38;99641.94;1718563;83;21523;-41
2021/07/27 09:28:25;;;;;;;11.03;6.40;;;;;;;31.80;36.23;99635.50;1718863;83;21591;-42
2021/07/27 09:31:00;;;;;;;14.30;6.50;;;;;;;31.80;35.59;99645.31;1730585;82;21088;-42
2021/07/27 09:33:32;;;;;;;12.30;6.95;;;;;;;31.85;36.77;99641.78;1748612;82;20925;-41
2021/07/27 09:35:59;;;;;;;12.15;6.40;;;;;;;31.95;36.01;99638.16;1747130;81;21078;-42
2021/07/27 09:38:26;;;;;;;13.18;6.80;;;;;;;32.01;36.06;99638.31;1745578;82;20973;-41
2021/07/27 09:41:00;;;;;;;9.10;5.75;;;;;;;32.05;36.81;99639.50;1745650;82;21010;-42
2021/07/27 09:43:28;;;;;;;13.30;6.42;;;;;;;32.12;35.79;99630.00;1745722;82;21530;-41
2021/07/27 09:45:57;;;;;;;11.73;5.95;;;;;;;32.23;36.37;99632.12;1745455;82;21044;-42
2021/07/27 09:48:23;;;;;;;15.05;6.00;;;;;;;32.30;34.79;99626.79;1745732;82;20998;-41
2021/07/27 09:50:53;;;;;;;11.57;6.33;;;;;;;32.33;34.49;99628.61;1745809;82;21029;-42
2021/07/27 09:53:21;;;;;;;8.18;5.87;;;;;;;32.33;34.50;99630.64;1745900;82;21537;-42
2021/07/27 09:55:48;;;;;;;11.38;5.85;;;;;;;32.30;34.00;99638.02;1745545;82;21103;-42
2021/07/27 09:58:15;;;;;;;10.45;5.97;;;;;;;32.25;34.35;99635.94;1745586;82;20949;-42
2021/07/27 10:00:55;;;;;;;14.10;6.15;;;;;;;32.26;35.19;99637.48;1745684;82;21750;-42
2021/07/27 10:03:26;;;;;;;14.10;6.10;;;;;;;32.35;34.51;99632.30;1745530;82;21010;-41
2021/07/27 10:06:01;;;;;;;12.65;6.28;;;;;;;32.47;33.29;99628.92;1745704;82;21033;-42
2021/07/27 10:08:33;;;;;;;11.18;5.85;;;;;;;32.50;33.31;99629.31;1745744;82;21511;-42
2021/07/27 10:11:11;;;;;;;14.45;6.25;;;;;;;32.52;33.04;99628.18;1745519;82;21662;-42
2021/07/27 10:13:46;;;;;;;8.30;6.05;;;;;;;32.59;33.65;99633.30;1745631;82;21064;-42
2021/07/27 10:16:24;;;;;;;11.40;5.75;;;;;;;32.69;33.54;99631.84;1745631;82;21001;-42
2021/07/27 10:18:51;;;;;;;9.70;5.92;;;;;;;32.80;33.34;99624.10;1745525;82;20993;-42
2021/07/27 10:21:25;;;;;;;16.07;6.22;;;;;;;32.94;34.17;99625.30;1745747;82;21833;-42
2021/07/27 10:24:13;;;;;;;10.43;5.70;;;;;;;33.13;34.29;99627.77;1739846;82;20990;-42
2021/07/27 10:26:40;;;;;;;9.40;5.90;;;;;;;33.36;33.60;99624.38;1745545;82;21021;-42
2021/07/27 10:29:07;;;;;;;11.85;6.08;;;;;;;33.59;33.46;99613.92;1745757;82;21515;-42
2021/07/27 10:31:42;;;;;;;8.40;5.95;;;;;;;33.80;32.72;99615.20;1745514;82;21048;-42
2021/07/27 10:34:10;;;;;;;10.15;5.67;;;;;;;33.91;32.13;99622.87;1745631;82;21119;-42
2021/07/27 10:36:43;;;;;;;9.35;6.00;;;;;;;33.78;31.18;99617.78;1745572;80;21511;-42
2021/07/27 10:39:14;;;;;;;11.78;6.25;;;;;;;33.56;32.09;99616.34;1745063;82;20997;-42
2021/07/27 10:41:47;;;;;;;9.95;5.72;;;;;;;33.43;32.55;99611.87;1745506;82;21053;-41
2021/07/27 10:44:20;;;;;;;10.38;5.72;;;;;;;33.52;32.20;99610.20;1745664;82;20953;-42
2021/07/27 10:46:51;;;;;;;9.45;5.45;;;;;;;33.70;31.62;99607.53;1745684;82;21121;-42
2021/07/27 10:49:23;;;;;;;9.38;5.30;;;;;;;33.78;31.31;99611.39;1745509;82;21013;-42
2021/07/27 10:51:53;;;;;;;11.57;5.95;;;;;;;33.81;30.60;99609.71;1745287;82;21076;-42
2021/07/27 10:54:27;;;;;;;11.28;5.37;;;;;;;33.95;31.24;99616.34;1744308;82;21010;-42
2021/07/27 10:57:07;;;;;;;9.43;5.22;;;;;;;34.07;31.73;99617.86;1745539;82;21534;-42
2021/07/27 10:59:35;;;;;;;9.10;5.65;;;;;;;34.21;31.80;99618.88;1745787;82;21480;-42
2021/07/27 11:02:13;;;;;;;10.40;5.55;;;;;;;34.38;31.87;99617.53;1745412;82;20965;-42
2021/07/27 11:04:40;;;;;;;7.80;5.10;;;;;;;34.39;30.53;99616.26;1745703;82;21025;-42
2021/07/27 11:07:17;;;;;;;15.43;5.97;;;;;;;34.11;30.23;99582.42;1745600;82;20961;-42
2021/07/27 11:09:56;;;;;;;12.10;5.30;;;;;;;34.12;31.07;99622.72;1745646;82;21513;-42
2021/07/27 11:12:34;;;;;;;10.48;5.30;;;;;;;34.02;31.06;99625.67;1745856;82;21102;-42
2021/07/27 11:15:12;;;;;;;9.20;5.47;;;;;;;33.93;30.80;99609.06;1745323;82;21067;-42
2021/07/27 11:17:51;;;;;;;5.95;4.87;;;;;;;33.86;30.78;99615.97;1745650;82;21037;-42
2021/07/27 11:20:24;;;;;;;7.72;4.58;;;;;;;33.86;30.80;99618.78;1743571;82;21096;-42
2021/07/27 11:22:55;;;;;;;7.72;4.60;;;;;;;33.85;30.66;99620.06;1745445;82;20982;-42
2021/07/27 11:25:25;;;;;;;10.28;5.17;;;;;;;33.68;30.51;99622.13;1745471;82;21468;-42
2021/07/27 11:27:52;;;;;;;8.60;5.28;;;;;;;33.42;31.38;99610.33;1745632;82;21491;-42
2021/07/27 11:30:34;;;;;;;6.30;4.90;;;;;;;33.21;31.90;99614.03;1745545;82;21033;-42
2021/07/27 11:33:13;;;;;;;8.33;5.50;;;;;;;33.05;32.43;99609.88;1745617;82;21020;-42
2021/07/27 11:35:53;;;;;;;13.87;5.27;;;;;;;32.85;32.26;99605.10;1745936;81;21041;-43
2021/07/27 11:38:24;;;;;;;13.68;5.90;;;;;;;32.62;32.55;99598.63;1745076;82;21115;-42
2021/07/27 11:41:04;;;;;;;9.65;5.25;;;;;;;32.51;33.10;99594.36;1745767;82;20957;-42
2021/07/27 11:43:37;;;;;;;11.97;5.47;;;;;;;32.45;33.60;99599.17;1745690;82;20977;-42
2021/07/27 11:46:13;;;;;;;8.15;4.58;;;;;;;32.34;33.55;99590.84;1745285;82;21088;-42
2021/07/27 11:48:40;;;;;;;7.28;5.05;;;;;;;32.21;33.97;99585.55;1745560;82;21010;-42
2021/07/27 11:51:07;;;;;;;8.63;5.67;;;;;;;31.97;34.50;99552.88;1724697;82;21132;-42